sensor_id;sensor_type;location;lat;lon;timestamp;pressure;altitude;pressure_sealevel;temperature;humidity
11444;BME280;5778;47.856;12.154;2023-01-29T00:01:54;97241.81;;;-2.66;100.00
11444;BME280;5778;47.856;12.154;2023-01-29T00:04:22;97235.31;;;-2.79;100.00
11444;BME280;5778;47.856;12.154;2023-01-29T00:06:49;97232.09;;;-2.91;100.00
11444;BME280;5778;47.856;12.154;2023-01-29T00:09:17;97228.41;;;-2.88;100.00
11444;BME280;5778;47.856;12.154;2023-01-29T00:11:46;97228.91;;;-2.85;100.00
11444;BME280;5778;47.856;12.154;2023-01-29T00:14:13;97228.41;;;-2.71;100.00
11444;BME280;5778;47.856;12.154;2023-01-29T00:16:41;97223.00;;;-2.60;100.00
11444;BME280;5778;47.856;12.154;2023-01-29T00:19:08;97225.00;;;-2.54;100.00
11444;BME280;5778;47.856;12.154;2023-01-29T00:21:34;97236.28;;;-2.63;100.00
11444;BME280;5778;47.856;12.154;2023-01-29T00:24:04;97234.75;;;-2.56;100.00
11444;BME280;5778;47.856;12.154;2023-01-29T00:26:31;97228.47;;;-2.45;100.00
11444;BME280;5778;47.856;12.154;2023-01-29T00:29:00;97233.91;;;-2.39;100.00
11444;BME280;5778;47.856;12.154;2023-01-29T00:31:27;97233.38;;;-2.42;100.00
11444;BME280;5778;47.856;12.154;2023-01-29T00:33:54;97231.13;;;-2.37;100.00
11444;BME280;5778;47.856;12.154;2023-01-29T00:36:22;97237.91;;;-2.27;100.00
11444;BME280;5778;47.856;12.154;2023-01-29T00:38:53;97243.28;;;-2.46;100.00
11444;BME280;5778;47.856;12.154;2023-01-29T00:41:25;97238.06;;;-2.46;100.00
11444;BME280;5778;47.856;12.154;2023-01-29T00:44:12;97234.28;;;-2.34;100.00
11444;BME280;5778;47.856;12.154;2023-01-29T00:46:56;97232.09;;;-2.21;100.00
11444;BME280;5778;47.856;12.154;2023-01-29T00:49:24;97241.44;;;-2.10;100.00
11444;BME280;5778;47.856;12.154;2023-01-29T00:51:51;97244.28;;;-2.04;100.00
11444;BME280;5778;47.856;12.154;2023-01-29T00:54:32;97252.47;;;-1.99;100.00
11444;BME280;5778;47.856;12.154;2023-01-29T00:56:59;97258.19;;;-1.95;100.00
11444;BME280;5778;47.856;12.154;2023-01-29T00:59:28;97258.69;;;-1.92;100.00
11444;BME280;5778;47.856;12.154;2023-01-29T01:01:55;97264.63;;;-1.82;100.00
11444;BME280;5778;47.856;12.154;2023-01-29T01:04:40;97259.50;;;-1.74;100.00
11444;BME280;5778;47.856;12.154;2023-01-29T01:07:07;97264.09;;;-1.68;100.00
11444;BME280;5778;47.856;12.154;2023-01-29T01:09:34;97262.03;;;-1.56;100.00
11444;BME280;5778;47.856;12.154;2023-01-29T01:12:28;97258.00;;;-1.51;100.00
11444;BME280;5778;47.856;12.154;2023-01-29T01:14:57;97261.59;;;-1.44;100.00
11444;BME280;5778;47.856;12.154;2023-01-29T01:17:24;97270.06;;;-1.50;100.00
11444;BME280;5778;47.856;12.154;2023-01-29T01:19:51;97266.47;;;-1.49;100.00
11444;BME280;5778;47.856;12.154;2023-01-29T01:22:18;97264.53;;;-1.47;100.00
11444;BME280;5778;47.856;12.154;2023-01-29T01:24:45;97263.59;;;-1.38;100.00
11444;BME280;5778;47.856;12.154;2023-01-29T01:27:12;97267.53;;;-1.34;100.00
11444;BME280;5778;47.856;12.154;2023-01-29T01:29:39;97269.31;;;-1.34;100.00
11444;BME280;5778;47.856;12.154;2023-01-29T01:32:08;97271.16;;;-1.27;100.00
11444;BME280;5778;47.856;12.154;2023-01-29T01:34:35;97266.34;;;-1.39;100.00
11444;BME280;5778;47.856;12.154;2023-01-29T01:37:02;97264.56;;;-1.39;100.00
11444;BME280;5778;47.856;12.154;2023-01-29T01:39:29;97270.84;;;-1.24;100.00
11444;BME280;5778;47.856;12.154;2023-01-29T01:41:55;97271.22;;;-1.11;100.00
11444;BME280;5778;47.856;12.154;2023-01-29T01:44:51;97266.34;;;-1.14;100.00
11444;BME280;5778;47.856;12.154;2023-01-29T01:47:23;97260.09;;;-1.21;100.00
11444;BME280;5778;47.856;12.154;2023-01-29T01:49:53;97265.69;;;-1.08;100.00
11444;BME280;5778;47.856;12.154;2023-01-29T01:52:21;97266.19;;;-1.04;100.00
11444;BME280;5778;47.856;12.154;2023-01-29T01:54:48;97262.41;;;-1.10;100.00
11444;BME280;5778;47.856;12.154;2023-01-29T01:57:19;97261.13;;;-1.14;100.00
11444;BME280;5778;47.856;12.154;2023-01-29T01:59:55;97253.00;;;-1.03;100.00
11444;BME280;5778;47.856;12.154;2023-01-29T02:02:25;97252.16;;;-1.03;100.00
11444;BME280;5778;47.856;12.154;2023-01-29T02:05:12;97255.09;;;-1.06;100.00
11444;BME280;5778;47.856;12.154;2023-01-29T02:07:57;97250.66;;;-1.14;100.00
11444;BME280;5778;47.856;12.154;2023-01-29T02:10:44;97248.91;;;-1.05;100.00
11444;BME280;5778;47.856;12.154;2023-01-29T02:13:12;97255.13;;;-0.98;100.00
11444;BME280;5778;47.856;12.154;2023-01-29T02:15:41;97253.78;;;-1.02;100.00
11444;BME280;5778;47.856;12.154;2023-01-29T02:18:13;97259.38;;;-0.97;100.00
11444;BME280;5778;47.856;12.154;2023-01-29T02:20:48;97260.50;;;-1.00;100.00
11444;BME280;5778;47.856;12.154;2023-01-29T02:23:51;97265.56;;;-0.98;100.00
11444;BME280;5778;47.856;12.154;2023-01-29T02:26:39;97267.84;;;-0.95;100.00
11444;BME280;5778;47.856;12.154;2023-01-29T02:29:15;97266.06;;;-0.95;100.00
11444;BME280;5778;47.856;12.154;2023-01-29T02:31:57;97266.84;;;-1.10;100.00
11444;BME280;5778;47.856;12.154;2023-01-29T02:34:35;97260.78;;;-1.11;100.00
11444;BME280;5778;47.856;12.154;2023-01-29T02:37:25;97274.53;;;-1.01;100.00
11444;BME280;5778;47.856;12.154;2023-01-29T02:40:05;97265.88;;;-1.01;100.00
11444;BME280;5778;47.856;12.154;2023-01-29T02:42:37;97274.47;;;-1.17;100.00
11444;BME280;5778;47.856;12.154;2023-01-29T02:45:13;97270.44;;;-1.03;100.00
11444;BME280;5778;47.856;12.154;2023-01-29T02:47:46;97273.53;;;-1.00;100.00
11444;BME280;5778;47.856;12.154;2023-01-29T02:50:18;97269.84;;;-0.89;100.00
11444;BME280;5778;47.856;12.154;2023-01-29T02:52:54;97268.69;;;-0.95;100.00
11444;BME280;5778;47.856;12.154;2023-01-29T02:55:28;97269.31;;;-1.01;100.00
11444;BME280;5778;47.856;12.154;2023-01-29T02:58:03;97265.41;;;-0.97;100.00
11444;BME280;5778;47.856;12.154;2023-01-29T03:00:35;97268.66;;;-1.03;100.00
11444;BME280;5778;47.856;12.154;2023-01-29T03:03:07;97265.28;;;-0.87;100.00
11444;BME280;5778;47.856;12.154;2023-01-29T03:05:44;97260.88;;;-0.87;100.00
11444;BME280;5778;47.856;12.154;2023-01-29T03:08:20;97253.06;;;-0.87;100.00
11444;BME280;5778;47.856;12.154;2023-01-29T03:10:51;97258.72;;;-0.91;100.00
11444;BME280;5778;47.856;12.154;2023-01-29T03:13:25;97264.00;;;-0.83;100.00
11444;BME280;5778;47.856;12.154;2023-01-29T03:16:02;97265.13;;;-0.78;100.00
11444;BME280;5778;47.856;12.154;2023-01-29T03:18:47;97260.59;;;-0.76;100.00
11444;BME280;5778;47.856;12.154;2023-01-29T03:21:20;97264.16;;;-0.77;100.00
11444;BME280;5778;47.856;12.154;2023-01-29T03:24:12;97257.78;;;-0.82;100.00
11444;BME280;5778;47.856;12.154;2023-01-29T03:27:01;97259.06;;;-0.86;100.00
11444;BME280;5778;47.856;12.154;2023-01-29T03:29:49;97259.28;;;-0.80;100.00
11444;BME280;5778;47.856;12.154;2023-01-29T03:33:02;97250.63;;;-0.72;100.00
11444;BME280;5778;47.856;12.154;2023-01-29T03:35:35;97243.94;;;-0.67;100.00
11444;BME280;5778;47.856;12.154;2023-01-29T03:38:06;97251.63;;;-0.65;100.00
11444;BME280;5778;47.856;12.154;2023-01-29T03:40:40;97256.53;;;-0.62;100.00
11444;BME280;5778;47.856;12.154;2023-01-29T03:43:14;97246.75;;;-0.52;100.00
11444;BME280;5778;47.856;12.154;2023-01-29T03:45:51;97247.38;;;-0.58;100.00
11444;BME280;5778;47.856;12.154;2023-01-29T03:48:31;97235.91;;;-0.81;100.00
11444;BME280;5778;47.856;12.154;2023-01-29T03:51:11;97239.22;;;-0.71;100.00
11444;BME280;5778;47.856;12.154;2023-01-29T03:53:47;97233.84;;;-0.70;100.00
11444;BME280;5778;47.856;12.154;2023-01-29T03:56:27;97228.78;;;-0.71;100.00
11444;BME280;5778;47.856;12.154;2023-01-29T03:59:01;97226.16;;;-0.71;100.00
11444;BME280;5778;47.856;12.154;2023-01-29T04:01:57;97237.25;;;-0.69;100.00
11444;BME280;5778;47.856;12.154;2023-01-29T04:04:28;97237.09;;;-0.68;100.00
11444;BME280;5778;47.856;12.154;2023-01-29T04:07:03;97239.06;;;-0.62;100.00
11444;BME280;5778;47.856;12.154;2023-01-29T04:09:36;97229.09;;;-0.66;100.00
11444;BME280;5778;47.856;12.154;2023-01-29T04:12:07;97225.66;;;-0.67;100.00
11444;BME280;5778;47.856;12.154;2023-01-29T04:14:37;97227.97;;;-0.64;100.00
11444;BME280;5778;47.856;12.154;2023-01-29T04:17:08;97225.97;;;-0.86;100.00
11444;BME280;5778;47.856;12.154;2023-01-29T04:19:44;97209.16;;;-0.75;100.00
11444;BME280;5778;47.856;12.154;2023-01-29T04:22:17;97204.94;;;-0.76;100.00
11444;BME280;5778;47.856;12.154;2023-01-29T04:24:47;97205.41;;;-0.73;100.00
11444;BME280;5778;47.856;12.154;2023-01-29T04:27:22;97208.72;;;-0.63;100.00
11444;BME280;5778;47.856;12.154;2023-01-29T04:30:04;97198.56;;;-0.66;100.00
11444;BME280;5778;47.856;12.154;2023-01-29T04:32:44;97190.09;;;-0.76;100.00
11444;BME280;5778;47.856;12.154;2023-01-29T04:35:27;97206.06;;;-0.71;100.00
11444;BME280;5778;47.856;12.154;2023-01-29T04:38:05;97197.94;;;-0.76;100.00
11444;BME280;5778;47.856;12.154;2023-01-29T04:40:42;97203.94;;;-0.83;100.00
11444;BME280;5778;47.856;12.154;2023-01-29T04:43:20;97201.81;;;-0.80;100.00
11444;BME280;5778;47.856;12.154;2023-01-29T04:46:04;97201.03;;;-0.72;100.00
11444;BME280;5778;47.856;12.154;2023-01-29T04:48:44;97197.25;;;-0.78;100.00
11444;BME280;5778;47.856;12.154;2023-01-29T04:51:23;97192.03;;;-0.78;100.00
11444;BME280;5778;47.856;12.154;2023-01-29T04:53:57;97186.16;;;-0.80;100.00
11444;BME280;5778;47.856;12.154;2023-01-29T04:56:30;97191.22;;;-0.70;100.00
11444;BME280;5778;47.856;12.154;2023-01-29T04:59:03;97200.22;;;-0.65;100.00
11444;BME280;5778;47.856;12.154;2023-01-29T05:01:32;97189.59;;;-0.71;100.00
11444;BME280;5778;47.856;12.154;2023-01-29T05:04:04;97189.28;;;-0.60;100.00
11444;BME280;5778;47.856;12.154;2023-01-29T05:06:34;97199.06;;;-0.70;100.00
11444;BME280;5778;47.856;12.154;2023-01-29T05:09:02;97204.63;;;-0.65;100.00
11444;BME280;5778;47.856;12.154;2023-01-29T05:11:31;97192.53;;;-0.66;100.00
11444;BME280;5778;47.856;12.154;2023-01-29T05:14:01;97194.44;;;-0.84;100.00
11444;BME280;5778;47.856;12.154;2023-01-29T05:16:33;97198.22;;;-0.79;100.00
11444;BME280;5778;47.856;12.154;2023-01-29T05:19:06;97197.75;;;-0.74;100.00
11444;BME280;5778;47.856;12.154;2023-01-29T05:21:36;97197.41;;;-0.79;100.00
11444;BME280;5778;47.856;12.154;2023-01-29T05:24:11;97202.78;;;-0.97;100.00
11444;BME280;5778;47.856;12.154;2023-01-29T05:26:41;97208.13;;;-0.98;100.00
11444;BME280;5778;47.856;12.154;2023-01-29T05:29:25;97206.38;;;-0.90;100.00
11444;BME280;5778;47.856;12.154;2023-01-29T05:31:52;97212.91;;;-0.86;100.00
11444;BME280;5778;47.856;12.154;2023-01-29T05:34:19;97217.13;;;-0.93;100.00
11444;BME280;5778;47.856;12.154;2023-01-29T05:36:48;97216.75;;;-1.06;100.00
11444;BME280;5778;47.856;12.154;2023-01-29T05:39:15;97227.63;;;-1.26;100.00
11444;BME280;5778;47.856;12.154;2023-01-29T05:41:42;97230.72;;;-1.23;100.00
11444;BME280;5778;47.856;12.154;2023-01-29T05:44:09;97243.44;;;-1.28;100.00
11444;BME280;5778;47.856;12.154;2023-01-29T05:46:36;97239.03;;;-1.27;100.00
11444;BME280;5778;47.856;12.154;2023-01-29T05:49:03;97252.59;;;-1.16;100.00
11444;BME280;5778;47.856;12.154;2023-01-29T05:51:30;97251.59;;;-1.23;100.00
11444;BME280;5778;47.856;12.154;2023-01-29T05:53:59;97249.16;;;-1.24;100.00
11444;BME280;5778;47.856;12.154;2023-01-29T05:56:26;97246.38;;;-1.23;100.00
11444;BME280;5778;47.856;12.154;2023-01-29T05:58:53;97257.13;;;-1.26;100.00
11444;BME280;5778;47.856;12.154;2023-01-29T06:01:22;97256.13;;;-1.33;100.00
11444;BME280;5778;47.856;12.154;2023-01-29T06:03:51;97255.81;;;-1.30;100.00
11444;BME280;5778;47.856;12.154;2023-01-29T06:06:17;97260.84;;;-1.28;100.00
11444;BME280;5778;47.856;12.154;2023-01-29T06:08:45;97267.69;;;-1.35;100.00
11444;BME280;5778;47.856;12.154;2023-01-29T06:11:14;97261.47;;;-1.34;100.00
11444;BME280;5778;47.856;12.154;2023-01-29T06:13:54;97270.13;;;-1.34;100.00
11444;BME280;5778;47.856;12.154;2023-01-29T06:16:21;97260.41;;;-1.24;100.00
11444;BME280;5778;47.856;12.154;2023-01-29T06:18:48;97261.72;;;-1.20;100.00
11444;BME280;5778;47.856;12.154;2023-01-29T06:21:15;97264.94;;;-1.26;100.00
11444;BME280;5778;47.856;12.154;2023-01-29T06:23:51;97267.56;;;-1.26;100.00
11444;BME280;5778;47.856;12.154;2023-01-29T06:26:20;97271.34;;;-1.20;100.00
11444;BME280;5778;47.856;12.154;2023-01-29T06:28:47;97264.50;;;-1.21;100.00
11444;BME280;5778;47.856;12.154;2023-01-29T06:31:14;97272.97;;;-1.27;100.00
11444;BME280;5778;47.856;12.154;2023-01-29T06:33:48;97269.50;;;-1.28;100.00
11444;BME280;5778;47.856;12.154;2023-01-29T06:36:17;97268.88;;;-1.22;100.00
11444;BME280;5778;47.856;12.154;2023-01-29T06:38:44;97262.66;;;-1.29;100.00
11444;BME280;5778;47.856;12.154;2023-01-29T06:41:13;97267.31;;;-1.48;100.00
11444;BME280;5778;47.856;12.154;2023-01-29T06:43:52;97267.19;;;-1.39;100.00
11444;BME280;5778;47.856;12.154;2023-01-29T06:46:19;97268.63;;;-1.70;100.00
11444;BME280;5778;47.856;12.154;2023-01-29T06:48:46;97273.34;;;-1.91;100.00
11444;BME280;5778;47.856;12.154;2023-01-29T06:51:13;97266.47;;;-1.74;100.00
11444;BME280;5778;47.856;12.154;2023-01-29T06:53:43;97271.47;;;-1.81;100.00
11444;BME280;5778;47.856;12.154;2023-01-29T06:56:10;97263.72;;;-1.98;100.00
11444;BME280;5778;47.856;12.154;2023-01-29T06:58:37;97266.88;;;-1.87;100.00
11444;BME280;5778;47.856;12.154;2023-01-29T07:01:07;97273.34;;;-1.91;100.00
11444;BME280;5778;47.856;12.154;2023-01-29T07:03:40;97270.72;;;-2.16;100.00
11444;BME280;5778;47.856;12.154;2023-01-29T07:06:08;97279.00;;;-2.21;100.00
11444;BME280;5778;47.856;12.154;2023-01-29T07:08:35;97280.03;;;-2.14;100.00
11444;BME280;5778;47.856;12.154;2023-01-29T07:11:03;97282.34;;;-2.28;100.00
11444;BME280;5778;47.856;12.154;2023-01-29T07:13:30;97264.25;;;-2.30;100.00
11444;BME280;5778;47.856;12.154;2023-01-29T07:15:58;97272.91;;;-2.29;100.00
11444;BME280;5778;47.856;12.154;2023-01-29T07:18:27;97278.03;;;-2.20;100.00
11444;BME280;5778;47.856;12.154;2023-01-29T07:20:55;97279.88;;;-2.30;100.00
11444;BME280;5778;47.856;12.154;2023-01-29T07:23:23;97269.19;;;-2.27;100.00
11444;BME280;5778;47.856;12.154;2023-01-29T07:25:50;97274.81;;;-2.14;100.00
11444;BME280;5778;47.856;12.154;2023-01-29T07:28:20;97268.38;;;-2.02;100.00
11444;BME280;5778;47.856;12.154;2023-01-29T07:30:47;97269.00;;;-1.82;100.00
11444;BME280;5778;47.856;12.154;2023-01-29T07:33:20;97262.81;;;-2.07;100.00
11444;BME280;5778;47.856;12.154;2023-01-29T07:35:48;97265.34;;;-1.97;100.00
11444;BME280;5778;47.856;12.154;2023-01-29T07:38:15;97259.06;;;-1.87;100.00
11444;BME280;5778;47.856;12.154;2023-01-29T07:40:42;97257.53;;;-1.97;100.00
11444;BME280;5778;47.856;12.154;2023-01-29T07:43:28;97251.88;;;-2.10;100.00
11444;BME280;5778;47.856;12.154;2023-01-29T07:45:54;97251.63;;;-1.99;100.00
11444;BME280;5778;47.856;12.154;2023-01-29T07:48:21;97252.25;;;-1.80;100.00
11444;BME280;5778;47.856;12.154;2023-01-29T07:50:55;97252.09;;;-1.53;100.00
11444;BME280;5778;47.856;12.154;2023-01-29T07:53:40;97244.63;;;-1.48;100.00
11444;BME280;5778;47.856;12.154;2023-01-29T07:56:08;97237.50;;;-1.38;100.00
11444;BME280;5778;47.856;12.154;2023-01-29T07:58:35;97236.25;;;-1.26;100.00
11444;BME280;5778;47.856;12.154;2023-01-29T08:01:04;97230.94;;;-1.08;100.00
11444;BME280;5778;47.856;12.154;2023-01-29T08:03:32;97232.22;;;-1.12;100.00
11444;BME280;5778;47.856;12.154;2023-01-29T08:06:01;97219.47;;;-1.23;100.00
11444;BME280;5778;47.856;12.154;2023-01-29T08:08:28;97219.03;;;-1.11;100.00
11444;BME280;5778;47.856;12.154;2023-01-29T08:10:56;97225.47;;;-1.31;100.00
11444;BME280;5778;47.856;12.154;2023-01-29T08:13:23;97223.94;;;-1.08;100.00
11444;BME280;5778;47.856;12.154;2023-01-29T08:15:50;97221.69;;;-1.03;100.00
11444;BME280;5778;47.856;12.154;2023-01-29T08:18:17;97222.50;;;-0.94;100.00
11444;BME280;5778;47.856;12.154;2023-01-29T08:20:44;97225.94;;;-0.94;100.00
11444;BME280;5778;47.856;12.154;2023-01-29T08:26:20;97224.97;;;-0.85;100.00
11444;BME280;5778;47.856;12.154;2023-01-29T08:28:47;97230.06;;;-0.83;100.00
11444;BME280;5778;47.856;12.154;2023-01-29T08:31:14;97219.78;;;-0.69;100.00
11444;BME280;5778;47.856;12.154;2023-01-29T08:33:52;97228.59;;;-0.78;100.00
11444;BME280;5778;47.856;12.154;2023-01-29T08:36:20;97218.97;;;-0.69;100.00
11444;BME280;5778;47.856;12.154;2023-01-29T08:38:47;97221.63;;;-0.45;100.00
11444;BME280;5778;47.856;12.154;2023-01-29T08:41:14;97229.31;;;-0.36;100.00
11444;BME280;5778;47.856;12.154;2023-01-29T08:43:49;97225.56;;;-0.17;100.00
11444;BME280;5778;47.856;12.154;2023-01-29T08:46:16;97231.59;;;-0.41;100.00
11444;BME280;5778;47.856;12.154;2023-01-29T08:48:43;97227.00;;;-0.39;100.00
11444;BME280;5778;47.856;12.154;2023-01-29T08:51:10;97232.25;;;-0.07;100.00
11444;BME280;5778;47.856;12.154;2023-01-29T08:53:38;97231.09;;;0.03;100.00
11444;BME280;5778;47.856;12.154;2023-01-29T08:56:06;97226.53;;;-0.11;100.00
11444;BME280;5778;47.856;12.154;2023-01-29T08:58:33;97229.63;;;-0.23;100.00
11444;BME280;5778;47.856;12.154;2023-01-29T09:01:09;97244.16;;;0.11;100.00
11444;BME280;5778;47.856;12.154;2023-01-29T09:03:44;97240.31;;;0.62;100.00
11444;BME280;5778;47.856;12.154;2023-01-29T09:06:13;97241.69;;;0.34;100.00
11444;BME280;5778;47.856;12.154;2023-01-29T09:08:40;97239.84;;;0.58;100.00
11444;BME280;5778;47.856;12.154;2023-01-29T09:11:07;97241.63;;;0.66;100.00
11444;BME280;5778;47.856;12.154;2023-01-29T09:13:37;97232.56;;;0.84;100.00
11444;BME280;5778;47.856;12.154;2023-01-29T09:16:04;97237.97;;;0.75;100.00
11444;BME280;5778;47.856;12.154;2023-01-29T09:18:32;97244.47;;;0.87;100.00
11444;BME280;5778;47.856;12.154;2023-01-29T09:20:59;97246.78;;;1.20;100.00
11444;BME280;5778;47.856;12.154;2023-01-29T09:23:31;97251.25;;;1.12;100.00
11444;BME280;5778;47.856;12.154;2023-01-29T09:25:58;97253.16;;;1.18;100.00
11444;BME280;5778;47.856;12.154;2023-01-29T09:28:25;97256.38;;;1.58;100.00
11444;BME280;5778;47.856;12.154;2023-01-29T09:30:53;97256.53;;;1.65;100.00
11444;BME280;5778;47.856;12.154;2023-01-29T09:33:52;97256.44;;;1.73;100.00
11444;BME280;5778;47.856;12.154;2023-01-29T09:36:19;97253.34;;;1.47;100.00
11444;BME280;5778;47.856;12.154;2023-01-29T09:38:46;97260.25;;;1.40;100.00
11444;BME280;5778;47.856;12.154;2023-01-29T09:41:23;97264.34;;;1.42;100.00
11444;BME280;5778;47.856;12.154;2023-01-29T09:43:59;97275.09;;;1.55;100.00
11444;BME280;5778;47.856;12.154;2023-01-29T09:46:35;97272.13;;;1.58;100.00
11444;BME280;5778;47.856;12.154;2023-01-29T09:49:17;97276.03;;;1.32;100.00
11444;BME280;5778;47.856;12.154;2023-01-29T09:51:50;97267.03;;;1.26;100.00
11444;BME280;5778;47.856;12.154;2023-01-29T09:54:35;97269.28;;;1.37;100.00
11444;BME280;5778;47.856;12.154;2023-01-29T09:57:09;97277.50;;;1.34;100.00
11444;BME280;5778;47.856;12.154;2023-01-29T09:59:41;97278.78;;;1.69;100.00
11444;BME280;5778;47.856;12.154;2023-01-29T10:02:09;97277.38;;;1.81;100.00
11444;BME280;5778;47.856;12.154;2023-01-29T10:05:13;97279.25;;;1.95;100.00
11444;BME280;5778;47.856;12.154;2023-01-29T10:08:04;97296.63;;;2.33;100.00
11444;BME280;5778;47.856;12.154;2023-01-29T10:10:48;97288.47;;;2.28;100.00
11444;BME280;5778;47.856;12.154;2023-01-29T10:13:39;97292.00;;;1.98;100.00
11444;BME280;5778;47.856;12.154;2023-01-29T10:16:20;97285.81;;;2.13;100.00
11444;BME280;5778;47.856;12.154;2023-01-29T10:22:04;97296.56;;;2.04;100.00
11444;BME280;5778;47.856;12.154;2023-01-29T10:24:37;97302.13;;;2.46;100.00
11444;BME280;5778;47.856;12.154;2023-01-29T10:27:13;97286.50;;;2.67;100.00
11444;BME280;5778;47.856;12.154;2023-01-29T10:29:43;97291.50;;;2.39;100.00
11444;BME280;5778;47.856;12.154;2023-01-29T10:32:15;97292.63;;;2.00;100.00
11444;BME280;5778;47.856;12.154;2023-01-29T10:34:47;97287.47;;;2.66;100.00
11444;BME280;5778;47.856;12.154;2023-01-29T10:37:22;97280.59;;;2.65;100.00
11444;BME280;5778;47.856;12.154;2023-01-29T10:39:50;97282.31;;;2.58;100.00
11444;BME280;5778;47.856;12.154;2023-01-29T10:42:25;97288.19;;;2.23;100.00
11444;BME280;5778;47.856;12.154;2023-01-29T10:45:02;97277.19;;;2.27;100.00
11444;BME280;5778;47.856;12.154;2023-01-29T10:48:06;97284.19;;;2.49;100.00
11444;BME280;5778;47.856;12.154;2023-01-29T10:50:44;97280.22;;;1.94;100.00
11444;BME280;5778;47.856;12.154;2023-01-29T10:56:40;97274.94;;;2.39;100.00
11444;BME280;5778;47.856;12.154;2023-01-29T10:59:30;97267.44;;;2.36;100.00
11444;BME280;5778;47.856;12.154;2023-01-29T11:02:01;97268.16;;;2.30;100.00
11444;BME280;5778;47.856;12.154;2023-01-29T11:04:30;97259.84;;;2.55;100.00
11444;BME280;5778;47.856;12.154;2023-01-29T11:06:58;97256.38;;;2.26;100.00
11444;BME280;5778;47.856;12.154;2023-01-29T11:09:30;97248.31;;;2.27;100.00
11444;BME280;5778;47.856;12.154;2023-01-29T11:12:02;97235.16;;;2.79;100.00
11444;BME280;5778;47.856;12.154;2023-01-29T11:14:36;97234.16;;;2.80;100.00
11444;BME280;5778;47.856;12.154;2023-01-29T11:17:05;97228.41;;;3.20;100.00
11444;BME280;5778;47.856;12.154;2023-01-29T11:19:37;97232.97;;;2.82;100.00
11444;BME280;5778;47.856;12.154;2023-01-29T11:22:12;97235.91;;;2.21;100.00
11444;BME280;5778;47.856;12.154;2023-01-29T11:24:39;97228.56;;;2.17;100.00
11444;BME280;5778;47.856;12.154;2023-01-29T11:27:16;97226.97;;;2.45;100.00
11444;BME280;5778;47.856;12.154;2023-01-29T11:29:48;97225.16;;;2.31;100.00
11444;BME280;5778;47.856;12.154;2023-01-29T11:35:29;97225.88;;;2.39;100.00
11444;BME280;5778;47.856;12.154;2023-01-29T11:38:06;97223.81;;;2.93;100.00
11444;BME280;5778;47.856;12.154;2023-01-29T11:40:37;97229.25;;;2.62;100.00
11444;BME280;5778;47.856;12.154;2023-01-29T11:43:36;97233.66;;;2.47;100.00
11444;BME280;5778;47.856;12.154;2023-01-29T11:46:05;97238.81;;;2.26;100.00
11444;BME280;5778;47.856;12.154;2023-01-29T11:48:42;97241.47;;;2.55;100.00
11444;BME280;5778;47.856;12.154;2023-01-29T11:51:11;97238.41;;;2.81;100.00
11444;BME280;5778;47.856;12.154;2023-01-29T11:53:54;97233.22;;;3.16;100.00
11444;BME280;5778;47.856;12.154;2023-01-29T11:56:27;97220.25;;;3.50;100.00
11444;BME280;5778;47.856;12.154;2023-01-29T11:58:56;97223.59;;;4.01;100.00
11444;BME280;5778;47.856;12.154;2023-01-29T12:01:30;97217.81;;;4.12;100.00
11444;BME280;5778;47.856;12.154;2023-01-29T12:04:00;97203.28;;;4.16;100.00
11444;BME280;5778;47.856;12.154;2023-01-29T12:06:32;97197.47;;;3.99;100.00
11444;BME280;5778;47.856;12.154;2023-01-29T12:09:02;97183.94;;;3.81;100.00
11444;BME280;5778;47.856;12.154;2023-01-29T12:11:35;97167.44;;;4.15;100.00
11444;BME280;5778;47.856;12.154;2023-01-29T12:14:19;97160.56;;;4.14;100.00
11444;BME280;5778;47.856;12.154;2023-01-29T12:16:52;97164.03;;;4.21;100.00
11444;BME280;5778;47.856;12.154;2023-01-29T12:19:26;97147.69;;;4.66;100.00
11444;BME280;5778;47.856;12.154;2023-01-29T12:21:58;97142.44;;;4.66;100.00
11444;BME280;5778;47.856;12.154;2023-01-29T12:24:32;97138.97;;;4.59;100.00
11444;BME280;5778;47.856;12.154;2023-01-29T12:27:06;97130.81;;;3.65;100.00
11444;BME280;5778;47.856;12.154;2023-01-29T12:29:42;97125.13;;;3.89;100.00
11444;BME280;5778;47.856;12.154;2023-01-29T12:32:28;97117.66;;;4.20;100.00
11444;BME280;5778;47.856;12.154;2023-01-29T12:35:02;97103.34;;;3.74;100.00
11444;BME280;5778;47.856;12.154;2023-01-29T12:37:37;97103.19;;;3.33;100.00
11444;BME280;5778;47.856;12.154;2023-01-29T12:40:11;97094.19;;;3.21;100.00
11444;BME280;5778;47.856;12.154;2023-01-29T12:42:41;97095.50;;;4.08;100.00
11444;BME280;5778;47.856;12.154;2023-01-29T12:45:15;97085.63;;;4.57;100.00
11444;BME280;5778;47.856;12.154;2023-01-29T12:47:46;97089.25;;;4.43;100.00
11444;BME280;5778;47.856;12.154;2023-01-29T12:50:18;97093.66;;;4.36;100.00
11444;BME280;5778;47.856;12.154;2023-01-29T12:52:49;97088.59;;;4.41;100.00
11444;BME280;5778;47.856;12.154;2023-01-29T12:55:19;97092.41;;;4.32;100.00
11444;BME280;5778;47.856;12.154;2023-01-29T12:57:53;97085.59;;;4.91;100.00
11444;BME280;5778;47.856;12.154;2023-01-29T13:00:26;97089.09;;;5.17;100.00
11444;BME280;5778;47.856;12.154;2023-01-29T13:02:58;97090.19;;;4.76;100.00
11444;BME280;5778;47.856;12.154;2023-01-29T13:05:27;97088.22;;;4.91;100.00
11444;BME280;5778;47.856;12.154;2023-01-29T13:08:00;97088.44;;;4.96;100.00
11444;BME280;5778;47.856;12.154;2023-01-29T13:10:31;97079.69;;;4.89;100.00
11444;BME280;5778;47.856;12.154;2023-01-29T13:13:03;97070.66;;;4.57;100.00
11444;BME280;5778;47.856;12.154;2023-01-29T13:15:34;97064.75;;;4.49;100.00
11444;BME280;5778;47.856;12.154;2023-01-29T13:18:25;97064.53;;;4.44;100.00
11444;BME280;5778;47.856;12.154;2023-01-29T13:20:58;97059.53;;;4.15;100.00
11444;BME280;5778;47.856;12.154;2023-01-29T13:23:30;97061.22;;;3.67;100.00
11444;BME280;5778;47.856;12.154;2023-01-29T13:25:59;97069.19;;;4.08;100.00
11444;BME280;5778;47.856;12.154;2023-01-29T13:28:26;97055.84;;;4.09;100.00
11444;BME280;5778;47.856;12.154;2023-01-29T13:31:17;97051.91;;;4.33;100.00
11444;BME280;5778;47.856;12.154;2023-01-29T13:33:52;97047.81;;;4.24;100.00
11444;BME280;5778;47.856;12.154;2023-01-29T13:36:24;97045.44;;;3.95;100.00